sensor_id;sensor_type;location;lat;lon;timestamp;P1;durP1;ratioP1;P2;durP2;ratioP2
78183;SDS011;67442;44.570;18.610;2024-03-17T00:01:38;103.97;;;45.38;;
78183;SDS011;67442;44.570;18.610;2024-03-17T00:04:08;88.00;;;40.65;;
78183;SDS011;67442;44.570;18.610;2024-03-17T00:06:36;89.50;;;40.95;;
78183;SDS011;67442;44.570;18.610;2024-03-17T00:09:03;86.25;;;36.72;;
78183;SDS011;67442;44.570;18.610;2024-03-17T00:11:35;85.65;;;38.85;;
78183;SDS011;67442;44.570;18.610;2024-03-17T00:14:02;81.90;;;38.00;;
78183;SDS011;67442;44.570;18.610;2024-03-17T00:16:29;82.95;;;36.70;;
78183;SDS011;67442;44.570;18.610;2024-03-17T00:18:56;98.47;;;43.55;;
78183;SDS011;67442;44.570;18.610;2024-03-17T00:21:24;71.78;;;32.90;;
78183;SDS011;67442;44.570;18.610;2024-03-17T00:23:52;87.63;;;37.78;;
78183;SDS011;67442;44.570;18.610;2024-03-17T00:26:19;122.75;;;51.55;;
78183;SDS011;67442;44.570;18.610;2024-03-17T00:28:47;107.40;;;48.30;;
78183;SDS011;67442;44.570;18.610;2024-03-17T00:31:16;126.20;;;58.10;;
78183;SDS011;67442;44.570;18.610;2024-03-17T00:33:44;135.65;;;67.00;;
78183;SDS011;67442;44.570;18.610;2024-03-17T00:36:12;133.30;;;59.72;;
78183;SDS011;67442;44.570;18.610;2024-03-17T00:38:40;114.82;;;56.60;;
78183;SDS011;67442;44.570;18.610;2024-03-17T00:41:08;102.05;;;49.92;;
78183;SDS011;67442;44.570;18.610;2024-03-17T00:43:34;114.22;;;53.45;;
78183;SDS011;67442;44.570;18.610;2024-03-17T00:46:03;130.98;;;58.60;;
78183;SDS011;67442;44.570;18.610;2024-03-17T00:48:31;125.28;;;57.97;;
78183;SDS011;67442;44.570;18.610;2024-03-17T00:50:59;106.05;;;51.00;;
78183;SDS011;67442;44.570;18.610;2024-03-17T00:53:27;112.78;;;55.08;;
78183;SDS011;67442;44.570;18.610;2024-03-17T00:55:55;238.18;;;116.60;;
78183;SDS011;67442;44.570;18.610;2024-03-17T00:58:27;109.35;;;49.40;;
78183;SDS011;67442;44.570;18.610;2024-03-17T01:00:54;156.45;;;68.60;;
78183;SDS011;67442;44.570;18.610;2024-03-17T01:03:22;170.10;;;72.53;;
78183;SDS011;67442;44.570;18.610;2024-03-17T01:05:49;161.93;;;66.93;;
78183;SDS011;67442;44.570;18.610;2024-03-17T01:08:18;115.75;;;53.72;;
78183;SDS011;67442;44.570;18.610;2024-03-17T01:10:46;107.13;;;50.25;;
78183;SDS011;67442;44.570;18.610;2024-03-17T01:13:17;107.90;;;49.65;;
78183;SDS011;67442;44.570;18.610;2024-03-17T01:15:45;101.70;;;49.10;;
78183;SDS011;67442;44.570;18.610;2024-03-17T01:18:12;86.65;;;42.67;;
78183;SDS011;67442;44.570;18.610;2024-03-17T01:20:38;143.75;;;63.78;;
78183;SDS011;67442;44.570;18.610;2024-03-17T01:23:05;109.53;;;51.47;;
78183;SDS011;67442;44.570;18.610;2024-03-17T01:25:33;137.70;;;63.10;;
78183;SDS011;67442;44.570;18.610;2024-03-17T01:28:04;93.13;;;44.00;;
78183;SDS011;67442;44.570;18.610;2024-03-17T01:30:31;108.05;;;48.45;;
78183;SDS011;67442;44.570;18.610;2024-03-17T01:33:00;109.63;;;51.08;;
78183;SDS011;67442;44.570;18.610;2024-03-17T01:35:27;145.48;;;63.90;;
78183;SDS011;67442;44.570;18.610;2024-03-17T01:37:55;166.43;;;73.57;;
78183;SDS011;67442;44.570;18.610;2024-03-17T01:40:22;123.53;;;57.17;;
78183;SDS011;67442;44.570;18.610;2024-03-17T01:42:50;148.75;;;66.63;;
78183;SDS011;67442;44.570;18.610;2024-03-17T01:47:44;118.68;;;55.28;;
78183;SDS011;67442;44.570;18.610;2024-03-17T01:50:12;122.13;;;58.13;;
78183;SDS011;67442;44.570;18.610;2024-03-17T01:52:42;165.10;;;70.57;;
78183;SDS011;67442;44.570;18.610;2024-03-17T01:55:09;118.50;;;53.78;;
78183;SDS011;67442;44.570;18.610;2024-03-17T01:57:37;115.57;;;52.22;;
78183;SDS011;67442;44.570;18.610;2024-03-17T02:00:05;123.78;;;52.88;;
78183;SDS011;67442;44.570;18.610;2024-03-17T02:02:34;105.65;;;45.78;;
78183;SDS011;67442;44.570;18.610;2024-03-17T02:05:02;92.32;;;41.47;;
78183;SDS011;67442;44.570;18.610;2024-03-17T02:07:30;81.63;;;40.25;;
78183;SDS011;67442;44.570;18.610;2024-03-17T02:09:57;92.75;;;41.22;;
78183;SDS011;67442;44.570;18.610;2024-03-17T02:12:25;102.05;;;43.90;;
78183;SDS011;67442;44.570;18.610;2024-03-17T02:14:52;125.68;;;54.83;;
78183;SDS011;67442;44.570;18.610;2024-03-17T02:17:20;122.90;;;55.83;;
78183;SDS011;67442;44.570;18.610;2024-03-17T02:19:47;115.53;;;50.72;;
78183;SDS011;67442;44.570;18.610;2024-03-17T02:22:15;110.53;;;49.00;;
78183;SDS011;67442;44.570;18.610;2024-03-17T02:24:43;115.38;;;50.22;;
78183;SDS011;67442;44.570;18.610;2024-03-17T02:27:10;139.18;;;55.85;;
78183;SDS011;67442;44.570;18.610;2024-03-17T02:29:37;105.78;;;46.47;;
78183;SDS011;67442;44.570;18.610;2024-03-17T02:32:05;84.47;;;39.30;;
78183;SDS011;67442;44.570;18.610;2024-03-17T02:34:36;87.95;;;40.05;;
78183;SDS011;67442;44.570;18.610;2024-03-17T02:37:03;101.50;;;42.13;;
78183;SDS011;67442;44.570;18.610;2024-03-17T02:39:30;96.78;;;42.88;;
78183;SDS011;67442;44.570;18.610;2024-03-17T02:42:03;97.53;;;44.58;;
78183;SDS011;67442;44.570;18.610;2024-03-17T02:44:47;78.45;;;39.45;;
78183;SDS011;67442;44.570;18.610;2024-03-17T02:47:14;84.75;;;40.08;;
78183;SDS011;67442;44.570;18.610;2024-03-17T02:49:42;121.88;;;52.65;;
78183;SDS011;67442;44.570;18.610;2024-03-17T02:52:10;153.95;;;57.75;;
78183;SDS011;67442;44.570;18.610;2024-03-17T02:54:40;85.13;;;39.63;;
78183;SDS011;67442;44.570;18.610;2024-03-17T02:57:08;76.32;;;37.65;;
78183;SDS011;67442;44.570;18.610;2024-03-17T02:59:34;77.63;;;37.67;;
78183;SDS011;67442;44.570;18.610;2024-03-17T03:02:02;86.35;;;42.40;;
78183;SDS011;67442;44.570;18.610;2024-03-17T03:04:30;161.10;;;64.30;;
78183;SDS011;67442;44.570;18.610;2024-03-17T03:06:57;94.75;;;42.22;;
78183;SDS011;67442;44.570;18.610;2024-03-17T03:09:25;81.68;;;38.60;;
78183;SDS011;67442;44.570;18.610;2024-03-17T03:12:00;89.45;;;40.03;;
78183;SDS011;67442;44.570;18.610;2024-03-17T03:14:30;79.05;;;39.90;;
78183;SDS011;67442;44.570;18.610;2024-03-17T03:16:58;95.05;;;45.28;;
78183;SDS011;67442;44.570;18.610;2024-03-17T03:19:26;227.07;;;78.93;;
78183;SDS011;67442;44.570;18.610;2024-03-17T03:21:53;87.65;;;40.67;;
78183;SDS011;67442;44.570;18.610;2024-03-17T03:24:21;77.63;;;37.05;;
78183;SDS011;67442;44.570;18.610;2024-03-17T03:26:49;80.97;;;39.20;;
78183;SDS011;67442;44.570;18.610;2024-03-17T03:29:17;149.15;;;55.38;;
78183;SDS011;67442;44.570;18.610;2024-03-17T03:31:45;125.78;;;52.25;;
78183;SDS011;67442;44.570;18.610;2024-03-17T03:34:13;108.18;;;51.08;;
78183;SDS011;67442;44.570;18.610;2024-03-17T03:36:41;94.28;;;45.35;;
78183;SDS011;67442;44.570;18.610;2024-03-17T03:39:08;95.07;;;45.65;;
78183;SDS011;67442;44.570;18.610;2024-03-17T03:41:37;95.55;;;46.90;;
78183;SDS011;67442;44.570;18.610;2024-03-17T03:44:05;110.25;;;50.53;;
78183;SDS011;67442;44.570;18.610;2024-03-17T03:46:33;88.90;;;44.53;;
78183;SDS011;67442;44.570;18.610;2024-03-17T03:49:01;112.45;;;50.22;;
78183;SDS011;67442;44.570;18.610;2024-03-17T03:51:28;92.53;;;44.20;;
78183;SDS011;67442;44.570;18.610;2024-03-17T03:53:55;89.47;;;43.30;;
78183;SDS011;67442;44.570;18.610;2024-03-17T03:56:22;83.93;;;41.58;;
78183;SDS011;67442;44.570;18.610;2024-03-17T03:58:51;80.20;;;39.22;;
78183;SDS011;67442;44.570;18.610;2024-03-17T04:01:19;74.43;;;37.75;;
78183;SDS011;67442;44.570;18.610;2024-03-17T04:03:48;78.18;;;38.80;;
78183;SDS011;67442;44.570;18.610;2024-03-17T04:06:18;88.55;;;43.13;;
78183;SDS011;67442;44.570;18.610;2024-03-17T04:08:45;88.25;;;42.72;;
78183;SDS011;67442;44.570;18.610;2024-03-17T04:11:13;76.00;;;39.30;;
78183;SDS011;67442;44.570;18.610;2024-03-17T04:13:41;85.47;;;42.13;;
78183;SDS011;67442;44.570;18.610;2024-03-17T04:16:09;80.03;;;41.20;;
78183;SDS011;67442;44.570;18.610;2024-03-17T04:18:38;79.32;;;42.42;;
78183;SDS011;67442;44.570;18.610;2024-03-17T04:21:07;81.45;;;42.40;;
78183;SDS011;67442;44.570;18.610;2024-03-17T04:23:35;81.15;;;41.72;;
78183;SDS011;67442;44.570;18.610;2024-03-17T04:26:03;74.47;;;38.35;;
78183;SDS011;67442;44.570;18.610;2024-03-17T04:28:33;82.90;;;41.47;;
78183;SDS011;67442;44.570;18.610;2024-03-17T04:31:02;82.30;;;42.95;;
78183;SDS011;67442;44.570;18.610;2024-03-17T04:33:30;78.95;;;41.00;;
78183;SDS011;67442;44.570;18.610;2024-03-17T04:35:57;75.03;;;39.25;;
78183;SDS011;67442;44.570;18.610;2024-03-17T04:38:25;76.55;;;39.72;;
78183;SDS011;67442;44.570;18.610;2024-03-17T04:40:55;88.72;;;42.22;;
78183;SDS011;67442;44.570;18.610;2024-03-17T04:43:33;76.20;;;40.35;;
78183;SDS011;67442;44.570;18.610;2024-03-17T04:46:01;122.80;;;47.88;;
78183;SDS011;67442;44.570;18.610;2024-03-17T04:48:30;96.53;;;45.40;;
78183;SDS011;67442;44.570;18.610;2024-03-17T04:50:58;82.00;;;41.67;;
78183;SDS011;67442;44.570;18.610;2024-03-17T04:53:26;80.55;;;40.78;;
78183;SDS011;67442;44.570;18.610;2024-03-17T04:58:26;72.22;;;37.83;;
78183;SDS011;67442;44.570;18.610;2024-03-17T05:00:53;83.50;;;40.30;;
78183;SDS011;67442;44.570;18.610;2024-03-17T05:03:21;79.75;;;37.78;;
78183;SDS011;67442;44.570;18.610;2024-03-17T05:05:57;114.40;;;48.22;;
78183;SDS011;67442;44.570;18.610;2024-03-17T05:08:44;123.25;;;52.83;;
78183;SDS011;67442;44.570;18.610;2024-03-17T05:11:12;109.70;;;51.03;;
78183;SDS011;67442;44.570;18.610;2024-03-17T05:13:41;96.53;;;45.25;;
78183;SDS011;67442;44.570;18.610;2024-03-17T05:16:09;93.80;;;44.70;;
78183;SDS011;67442;44.570;18.610;2024-03-17T05:18:36;114.07;;;51.70;;
78183;SDS011;67442;44.570;18.610;2024-03-17T05:21:05;148.45;;;60.45;;
78183;SDS011;67442;44.570;18.610;2024-03-17T05:23:33;110.60;;;49.50;;
78183;SDS011;67442;44.570;18.610;2024-03-17T05:26:01;95.03;;;44.55;;
78183;SDS011;67442;44.570;18.610;2024-03-17T05:28:32;86.95;;;43.65;;
78183;SDS011;67442;44.570;18.610;2024-03-17T05:30:59;89.80;;;44.63;;
78183;SDS011;67442;44.570;18.610;2024-03-17T05:33:26;91.30;;;44.30;;
78183;SDS011;67442;44.570;18.610;2024-03-17T05:35:54;87.15;;;44.70;;
78183;SDS011;67442;44.570;18.610;2024-03-17T05:38:25;94.60;;;46.13;;
78183;SDS011;67442;44.570;18.610;2024-03-17T05:43:21;108.95;;;50.65;;
78183;SDS011;67442;44.570;18.610;2024-03-17T05:45:53;128.65;;;59.85;;
78183;SDS011;67442;44.570;18.610;2024-03-17T05:48:20;115.72;;;57.83;;
78183;SDS011;67442;44.570;18.610;2024-03-17T05:50:48;122.80;;;58.53;;
78183;SDS011;67442;44.570;18.610;2024-03-17T05:53:15;122.25;;;55.38;;
78183;SDS011;67442;44.570;18.610;2024-03-17T05:55:43;108.07;;;53.70;;
78183;SDS011;67442;44.570;18.610;2024-03-17T05:58:11;116.32;;;56.80;;
78183;SDS011;67442;44.570;18.610;2024-03-17T06:00:38;118.47;;;58.05;;
78183;SDS011;67442;44.570;18.610;2024-03-17T06:03:06;144.63;;;66.30;;
78183;SDS011;67442;44.570;18.610;2024-03-17T06:05:33;124.05;;;60.45;;
78183;SDS011;67442;44.570;18.610;2024-03-17T06:08:01;105.07;;;53.47;;
78183;SDS011;67442;44.570;18.610;2024-03-17T06:10:33;119.72;;;57.75;;
78183;SDS011;67442;44.570;18.610;2024-03-17T06:13:16;97.93;;;51.75;;
78183;SDS011;67442;44.570;18.610;2024-03-17T06:15:44;124.78;;;60.78;;
78183;SDS011;67442;44.570;18.610;2024-03-17T06:18:14;120.30;;;59.25;;
78183;SDS011;67442;44.570;18.610;2024-03-17T06:20:47;125.70;;;63.72;;
78183;SDS011;67442;44.570;18.610;2024-03-17T06:23:14;181.50;;;78.32;;
78183;SDS011;67442;44.570;18.610;2024-03-17T06:25:43;170.80;;;78.75;;
78183;SDS011;67442;44.570;18.610;2024-03-17T06:28:10;143.05;;;68.25;;
78183;SDS011;67442;44.570;18.610;2024-03-17T06:30:41;134.52;;;67.03;;
78183;SDS011;67442;44.570;18.610;2024-03-17T06:33:10;135.77;;;66.53;;
78183;SDS011;67442;44.570;18.610;2024-03-17T06:35:38;147.25;;;70.45;;
78183;SDS011;67442;44.570;18.610;2024-03-17T06:38:06;134.35;;;64.07;;
78183;SDS011;67442;44.570;18.610;2024-03-17T06:40:38;111.78;;;55.92;;
78183;SDS011;67442;44.570;18.610;2024-03-17T06:43:05;107.80;;;53.85;;
78183;SDS011;67442;44.570;18.610;2024-03-17T06:45:33;115.00;;;57.47;;
78183;SDS011;67442;44.570;18.610;2024-03-17T06:48:01;114.60;;;58.50;;
78183;SDS011;67442;44.570;18.610;2024-03-17T06:50:29;111.15;;;55.03;;
78183;SDS011;67442;44.570;18.610;2024-03-17T06:52:57;102.43;;;53.15;;
78183;SDS011;67442;44.570;18.610;2024-03-17T06:55:24;103.82;;;55.35;;
78183;SDS011;67442;44.570;18.610;2024-03-17T06:57:53;120.30;;;61.22;;
78183;SDS011;67442;44.570;18.610;2024-03-17T07:00:21;121.82;;;61.90;;
78183;SDS011;67442;44.570;18.610;2024-03-17T07:02:50;180.30;;;78.00;;
78183;SDS011;67442;44.570;18.610;2024-03-17T07:05:18;120.82;;;60.80;;
78183;SDS011;67442;44.570;18.610;2024-03-17T07:07:45;111.30;;;57.80;;
78183;SDS011;67442;44.570;18.610;2024-03-17T07:10:13;113.07;;;56.45;;
78183;SDS011;67442;44.570;18.610;2024-03-17T07:12:40;107.85;;;63.28;;
78183;SDS011;67442;44.570;18.610;2024-03-17T07:15:08;106.13;;;55.47;;
78183;SDS011;67442;44.570;18.610;2024-03-17T07:17:36;82.00;;;44.90;;
78183;SDS011;67442;44.570;18.610;2024-03-17T07:20:04;83.38;;;44.33;;
78183;SDS011;67442;44.570;18.610;2024-03-17T07:22:34;83.60;;;42.53;;
78183;SDS011;67442;44.570;18.610;2024-03-17T07:25:02;64.57;;;36.70;;
78183;SDS011;67442;44.570;18.610;2024-03-17T07:27:30;63.00;;;34.45;;
78183;SDS011;67442;44.570;18.610;2024-03-17T07:29:58;67.30;;;36.67;;
78183;SDS011;67442;44.570;18.610;2024-03-17T07:32:25;71.72;;;38.45;;
78183;SDS011;67442;44.570;18.610;2024-03-17T07:34:52;69.05;;;38.00;;
78183;SDS011;67442;44.570;18.610;2024-03-17T07:37:20;64.43;;;35.35;;
78183;SDS011;67442;44.570;18.610;2024-03-17T07:39:48;63.05;;;35.75;;
78183;SDS011;67442;44.570;18.610;2024-03-17T07:42:15;55.15;;;31.50;;
78183;SDS011;67442;44.570;18.610;2024-03-17T07:44:43;50.90;;;27.15;;
78183;SDS011;67442;44.570;18.610;2024-03-17T07:47:10;47.55;;;27.90;;
78183;SDS011;67442;44.570;18.610;2024-03-17T07:49:38;58.20;;;30.90;;
78183;SDS011;67442;44.570;18.610;2024-03-17T07:52:05;56.70;;;31.00;;
78183;SDS011;67442;44.570;18.610;2024-03-17T07:54:33;39.88;;;21.73;;
78183;SDS011;67442;44.570;18.610;2024-03-17T07:57:01;63.38;;;28.40;;
78183;SDS011;67442;44.570;18.610;2024-03-17T07:59:28;48.92;;;24.52;;
78183;SDS011;67442;44.570;18.610;2024-03-17T08:01:56;37.80;;;19.65;;
78183;SDS011;67442;44.570;18.610;2024-03-17T08:04:23;53.10;;;25.08;;
78183;SDS011;67442;44.570;18.610;2024-03-17T08:06:50;43.13;;;20.80;;
78183;SDS011;67442;44.570;18.610;2024-03-17T08:09:18;32.63;;;16.55;;
78183;SDS011;67442;44.570;18.610;2024-03-17T08:11:45;39.65;;;19.75;;
78183;SDS011;67442;44.570;18.610;2024-03-17T08:14:13;37.05;;;19.85;;
78183;SDS011;67442;44.570;18.610;2024-03-17T08:16:41;32.95;;;19.30;;
78183;SDS011;67442;44.570;18.610;2024-03-17T08:19:09;33.63;;;17.70;;
78183;SDS011;67442;44.570;18.610;2024-03-17T08:21:36;79.38;;;39.80;;
78183;SDS011;67442;44.570;18.610;2024-03-17T08:24:04;33.75;;;19.02;;
78183;SDS011;67442;44.570;18.610;2024-03-17T08:26:32;44.28;;;23.15;;
78183;SDS011;67442;44.570;18.610;2024-03-17T08:29:00;34.80;;;18.67;;
78183;SDS011;67442;44.570;18.610;2024-03-17T08:31:27;29.92;;;16.83;;
78183;SDS011;67442;44.570;18.610;2024-03-17T08:33:55;44.17;;;23.38;;
78183;SDS011;67442;44.570;18.610;2024-03-17T08:36:22;29.95;;;16.92;;
78183;SDS011;67442;44.570;18.610;2024-03-17T08:38:50;30.25;;;16.15;;
78183;SDS011;67442;44.570;18.610;2024-03-17T08:41:18;27.45;;;15.80;;
78183;SDS011;67442;44.570;18.610;2024-03-17T08:43:46;30.45;;;16.65;;
78183;SDS011;67442;44.570;18.610;2024-03-17T08:46:14;28.30;;;15.60;;
78183;SDS011;67442;44.570;18.610;2024-03-17T08:48:41;55.83;;;27.95;;
78183;SDS011;67442;44.570;18.610;2024-03-17T08:51:09;22.95;;;12.68;;
78183;SDS011;67442;44.570;18.610;2024-03-17T08:53:36;22.98;;;13.60;;
78183;SDS011;67442;44.570;18.610;2024-03-17T08:56:05;21.13;;;12.15;;
78183;SDS011;67442;44.570;18.610;2024-03-17T08:58:32;18.63;;;11.07;;
78183;SDS011;67442;44.570;18.610;2024-03-17T09:01:04;17.95;;;11.15;;
78183;SDS011;67442;44.570;18.610;2024-03-17T09:03:34;20.33;;;11.13;;
78183;SDS011;67442;44.570;18.610;2024-03-17T09:06:02;20.13;;;11.25;;
78183;SDS011;67442;44.570;18.610;2024-03-17T09:08:30;18.15;;;10.90;;
78183;SDS011;67442;44.570;18.610;2024-03-17T09:10:59;20.52;;;10.68;;
78183;SDS011;67442;44.570;18.610;2024-03-17T09:13:26;88.72;;;31.95;;
78183;SDS011;67442;44.570;18.610;2024-03-17T09:15:57;26.60;;;13.02;;
78183;SDS011;67442;44.570;18.610;2024-03-17T09:18:28;22.40;;;11.52;;
78183;SDS011;67442;44.570;18.610;2024-03-17T09:23:28;25.58;;;11.35;;
78183;SDS011;67442;44.570;18.610;2024-03-17T09:28:22;14.25;;;7.57;;
78183;SDS011;67442;44.570;18.610;2024-03-17T09:30:49;11.38;;;6.80;;
78183;SDS011;67442;44.570;18.610;2024-03-17T09:33:19;9.70;;;6.32;;
78183;SDS011;67442;44.570;18.610;2024-03-17T09:38:22;9.93;;;5.85;;
78183;SDS011;67442;44.570;18.610;2024-03-17T09:40:49;13.07;;;7.43;;
78183;SDS011;67442;44.570;18.610;2024-03-17T09:43:25;9.33;;;6.17;;
78183;SDS011;67442;44.570;18.610;2024-03-17T09:45:52;37.25;;;18.92;;
78183;SDS011;67442;44.570;18.610;2024-03-17T09:48:26;81.32;;;40.55;;
78183;SDS011;67442;44.570;18.610;2024-03-17T09:53:23;11.30;;;6.93;;
78183;SDS011;67442;44.570;18.610;2024-03-17T09:55:52;13.27;;;7.35;;
78183;SDS011;67442;44.570;18.610;2024-03-17T09:58:20;19.48;;;9.48;;
78183;SDS011;67442;44.570;18.610;2024-03-17T10:00:47;15.32;;;8.90;;
78183;SDS011;67442;44.570;18.610;2024-03-17T10:08:27;16.42;;;8.48;;
78183;SDS011;67442;44.570;18.610;2024-03-17T10:10:55;13.73;;;8.10;;
78183;SDS011;67442;44.570;18.610;2024-03-17T10:13:23;17.80;;;9.00;;
78183;SDS011;67442;44.570;18.610;2024-03-17T10:15:51;18.25;;;8.95;;
78183;SDS011;67442;44.570;18.610;2024-03-17T10:18:22;11.70;;;7.65;;
78183;SDS011;67442;44.570;18.610;2024-03-17T10:20:50;15.55;;;8.00;;
78183;SDS011;67442;44.570;18.610;2024-03-17T10:23:22;14.25;;;7.53;;
78183;SDS011;67442;44.570;18.610;2024-03-17T10:25:50;13.05;;;6.25;;
78183;SDS011;67442;44.570;18.610;2024-03-17T10:28:17;13.98;;;6.72;;
78183;SDS011;67442;44.570;18.610;2024-03-17T10:30:59;15.05;;;6.63;;
78183;SDS011;67442;44.570;18.610;2024-03-17T10:33:26;13.82;;;6.40;;
78183;SDS011;67442;44.570;18.610;2024-03-17T10:35:57;9.48;;;5.25;;
78183;SDS011;67442;44.570;18.610;2024-03-17T10:38:26;6.57;;;4.00;;
78183;SDS011;67442;44.570;18.610;2024-03-17T10:40:54;8.00;;;4.22;;
78183;SDS011;67442;44.570;18.610;2024-03-17T10:43:21;6.82;;;3.38;;
78183;SDS011;67442;44.570;18.610;2024-03-17T10:45:51;3.92;;;2.58;;
78183;SDS011;67442;44.570;18.610;2024-03-17T10:48:20;7.25;;;3.80;;
78183;SDS011;67442;44.570;18.610;2024-03-17T10:50:50;7.38;;;3.83;;
78183;SDS011;67442;44.570;18.610;2024-03-17T10:53:20;9.00;;;4.72;;
78183;SDS011;67442;44.570;18.610;2024-03-17T10:56:05;6.22;;;3.65;;
78183;SDS011;67442;44.570;18.610;2024-03-17T10:58:35;17.25;;;7.80;;
78183;SDS011;67442;44.570;18.610;2024-03-17T11:01:02;11.07;;;5.70;;
78183;SDS011;67442;44.570;18.610;2024-03-17T11:03:34;16.58;;;7.25;;
78183;SDS011;67442;44.570;18.610;2024-03-17T11:06:02;9.73;;;6.13;;
78183;SDS011;67442;44.570;18.610;2024-03-17T11:08:31;14.73;;;5.55;;
78183;SDS011;67442;44.570;18.610;2024-03-17T11:11:00;11.57;;;5.55;;
78183;SDS011;67442;44.570;18.610;2024-03-17T11:13:29;6.75;;;2.70;;
78183;SDS011;67442;44.570;18.610;2024-03-17T11:15:57;5.13;;;3.22;;
78183;SDS011;67442;44.570;18.610;2024-03-17T11:20:59;6.43;;;2.80;;
78183;SDS011;67442;44.570;18.610;2024-03-17T11:23:29;18.13;;;8.05;;
78183;SDS011;67442;44.570;18.610;2024-03-17T11:25:56;13.25;;;7.32;;
78183;SDS011;67442;44.570;18.610;2024-03-17T11:28:44;8.05;;;3.97;;
78183;SDS011;67442;44.570;18.610;2024-03-17T11:31:33;7.07;;;3.30;;
78183;SDS011;67442;44.570;18.610;2024-03-17T11:34:07;13.18;;;4.18;;
78183;SDS011;67442;44.570;18.610;2024-03-17T11:36:52;6.45;;;3.30;;
78183;SDS011;67442;44.570;18.610;2024-03-17T11:39:19;30.95;;;15.70;;
78183;SDS011;67442;44.570;18.610;2024-03-17T11:41:49;8.73;;;4.20;;
78183;SDS011;67442;44.570;18.610;2024-03-17T11:47:03;12.15;;;6.60;;
78183;SDS011;67442;44.570;18.610;2024-03-17T11:49:39;11.30;;;7.03;;
78183;SDS011;67442;44.570;18.610;2024-03-17T11:52:12;7.32;;;4.07;;
78183;SDS011;67442;44.570;18.610;2024-03-17T11:54:44;11.77;;;4.43;;
78183;SDS011;67442;44.570;18.610;2024-03-17T11:57:12;8.70;;;4.90;;
78183;SDS011;67442;44.570;18.610;2024-03-17T11:59:40;11.95;;;5.85;;
78183;SDS011;67442;44.570;18.610;2024-03-17T12:04:40;13.15;;;6.90;;
78183;SDS011;67442;44.570;18.610;2024-03-17T12:07:11;19.33;;;8.15;;
78183;SDS011;67442;44.570;18.610;2024-03-17T12:09:43;13.20;;;6.68;;
78183;SDS011;67442;44.570;18.610;2024-03-17T12:12:29;14.18;;;6.80;;
78183;SDS011;67442;44.570;18.610;2024-03-17T12:15:05;13.70;;;7.72;;
78183;SDS011;67442;44.570;18.610;2024-03-17T12:17:46;11.00;;;6.00;;
78183;SDS011;67442;44.570;18.610;2024-03-17T12:20:19;12.60;;;6.82;;
78183;SDS011;67442;44.570;18.610;2024-03-17T12:22:47;14.02;;;6.85;;
78183;SDS011;67442;44.570;18.610;2024-03-17T12:25:19;11.55;;;5.85;;
78183;SDS011;67442;44.570;18.610;2024-03-17T12:27:48;12.98;;;5.82;;
78183;SDS011;67442;44.570;18.610;2024-03-17T12:30:16;11.57;;;5.57;;
78183;SDS011;67442;44.570;18.610;2024-03-17T12:32:44;8.00;;;4.28;;
78183;SDS011;67442;44.570;18.610;2024-03-17T12:35:13;9.30;;;4.10;;
78183;SDS011;67442;44.570;18.610;2024-03-17T12:37:43;12.77;;;4.50;;
78183;SDS011;67442;44.570;18.610;2024-03-17T12:40:17;7.22;;;4.25;;
78183;SDS011;67442;44.570;18.610;2024-03-17T12:42:47;7.30;;;4.00;;
78183;SDS011;67442;44.570;18.610;2024-03-17T12:45:19;5.72;;;2.70;;
78183;SDS011;67442;44.570;18.610;2024-03-17T12:47:48;4.97;;;2.20;;
78183;SDS011;67442;44.570;18.610;2024-03-17T12:50:15;6.88;;;3.80;;
78183;SDS011;67442;44.570;18.610;2024-03-17T12:52:52;5.60;;;2.70;;
78183;SDS011;67442;44.570;18.610;2024-03-17T12:55:30;6.72;;;2.80;;
78183;SDS011;67442;44.570;18.610;2024-03-17T13:01:00;8.32;;;3.10;;
78183;SDS011;67442;44.570;18.610;2024-03-17T13:03:32;8.10;;;2.72;;
78183;SDS011;67442;44.570;18.610;2024-03-17T13:06:00;5.57;;;2.20;;
78183;SDS011;67442;44.570;18.610;2024-03-17T13:08:34;17.30;;;4.10;;
78183;SDS011;67442;44.570;18.610;2024-03-17T13:11:01;6.72;;;3.25;;
78183;SDS011;67442;44.570;18.610;2024-03-17T13:13:35;13.15;;;2.58;;
78183;SDS011;67442;44.570;18.610;2024-03-17T13:16:01;7.97;;;2.88;;
78183;SDS011;67442;44.570;18.610;2024-03-17T13:18:29;4.07;;;2.50;;
78183;SDS011;67442;44.570;18.610;2024-03-17T13:20:56;3.13;;;1.40;;
78183;SDS011;67442;44.570;18.610;2024-03-17T13:23:24;8.57;;;1.48;;
78183;SDS011;67442;44.570;18.610;2024-03-17T13:25:52;4.00;;;2.22;;
78183;SDS011;67442;44.570;18.610;2024-03-17T13:28:23;11.85;;;4.25;;
78183;SDS011;67442;44.570;18.610;2024-03-17T13:30:50;4.45;;;2.33;;
78183;SDS011;67442;44.570;18.610;2024-03-17T13:33:20;4.63;;;1.90;;
78183;SDS011;67442;44.570;18.610;2024-03-17T13:35:47;11.18;;;4.10;;
78183;SDS011;67442;44.570;18.610;2024-03-17T13:38:15;5.20;;;1.60;;
78183;SDS011;67442;44.570;18.610;2024-03-17T13:40:42;2.63;;;1.40;;
78183;SDS011;67442;44.570;18.610;2024-03-17T13:43:09;2.60;;;1.70;;
78183;SDS011;67442;44.570;18.610;2024-03-17T13:45:40;3.40;;;2.03;;
78183;SDS011;67442;44.570;18.610;2024-03-17T13:48:07;2.80;;;1.35;;
78183;SDS011;67442;44.570;18.610;2024-03-17T13:50:37;4.53;;;1.77;;
78183;SDS011;67442;44.570;18.610;2024-03-17T13:53:05;4.88;;;1.60;;
78183;SDS011;67442;44.570;18.610;2024-03-17T13:55:32;2.58;;;1.58;;
78183;SDS011;67442;44.570;18.610;2024-03-17T13:58:01;6.03;;;2.30;;
78183;SDS011;67442;44.570;18.610;2024-03-17T14:00:28;6.40;;;2.65;;
78183;SDS011;67442;44.570;18.610;2024-03-17T14:02:56;5.05;;;1.55;;
78183;SDS011;67442;44.570;18.610;2024-03-17T14:05:23;34.25;;;12.45;;
78183;SDS011;67442;44.570;18.610;2024-03-17T14:07:52;5.35;;;2.75;;
78183;SDS011;67442;44.570;18.610;2024-03-17T14:10:23;3.88;;;1.63;;
78183;SDS011;67442;44.570;18.610;2024-03-17T14:12:50;10.38;;;1.60;;
78183;SDS011;67442;44.570;18.610;2024-03-17T14:15:17;2.20;;;1.42;;
78183;SDS011;67442;44.570;18.610;2024-03-17T14:17:44;4.50;;;1.25;;
78183;SDS011;67442;44.570;18.610;2024-03-17T14:20:13;3.72;;;1.48;;
78183;SDS011;67442;44.570;18.610;2024-03-17T14:22:44;2.80;;;1.23;;
78183;SDS011;67442;44.570;18.610;2024-03-17T14:25:16;12.20;;;3.42;;
78183;SDS011;67442;44.570;18.610;2024-03-17T14:27:44;10.38;;;3.85;;
78183;SDS011;67442;44.570;18.610;2024-03-17T14:30:16;6.45;;;1.40;;
78183;SDS011;67442;44.570;18.610;2024-03-17T14:32:44;2.58;;;1.45;;
78183;SDS011;67442;44.570;18.610;2024-03-17T14:35:14;11.23;;;3.30;;
78183;SDS011;67442;44.570;18.610;2024-03-17T14:37:42;14.68;;;5.97;;
78183;SDS011;67442;44.570;18.610;2024-03-17T14:40:14;6.90;;;4.00;;
78183;SDS011;67442;44.570;18.610;2024-03-17T14:42:49;7.40;;;2.72;;
78183;SDS011;67442;44.570;18.610;2024-03-17T14:45:17;15.20;;;5.10;;
78183;SDS011;67442;44.570;18.610;2024-03-17T14:47:45;17.65;;;8.90;;
78183;SDS011;67442;44.570;18.610;2024-03-17T14:50:12;4.72;;;2.20;;
78183;SDS011;67442;44.570;18.610;2024-03-17T14:52:40;5.43;;;2.00;;
78183;SDS011;67442;44.570;18.610;2024-03-17T14:55:07;6.22;;;2.78;;